Time;durP1;ratioP1;P1;durP2;ratioP2;P2;SDS_P1;SDS_P2;PMS_P1;PMS_P2;Temp;Humidity;BMP_temperature;BMP_pressure;BME280_temperature;BME280_humidity;BME280_pressure;Samples;Min_cycle;Max_cycle;Signal;HPM_P1;HPM_P2
2021/07/27 00:28:57;;;;;;;6.97;2.42;;;;;;;18.47;73.98;99663.06;2195223;40;20039;-81
2021/07/27 00:30:29;;;;;;;6.25;2.33;;;;;;;18.47;74.12;99648.69;2193764;40;20035;-85
2021/07/27 00:32:00;;;;;;;4.05;1.95;;;;;;;18.48;74.17;99656.63;2194111;40;20042;-82
2021/07/27 00:33:31;;;;;;;5.38;2.00;;;;;;;18.50;74.16;99657.25;2206091;40;20034;-83
2021/07/27 00:35:04;;;;;;;4.88;1.80;;;;;;;18.49;74.41;99646.63;2213903;40;20034;-82
2021/07/27 00:36:36;;;;;;;5.15;1.90;;;;;;;18.55;73.92;99651.22;2211650;40;20337;-79
2021/07/27 00:38:10;;;;;;;4.50;2.17;;;;;;;18.59;74.07;99646.22;2210017;40;20030;-80
2021/07/27 00:39:41;;;;;;;5.15;2.28;;;;;;;18.61;74.29;99647.66;2204261;40;20026;-80
2021/07/27 00:41:13;;;;;;;4.03;1.95;;;;;;;18.64;74.13;99638.28;2204204;40;20362;-79
2021/07/27 00:42:46;;;;;;;4.95;2.00;;;;;;;18.68;73.78;99644.97;2204323;40;20038;-79
2021/07/27 00:44:19;;;;;;;4.43;2.30;;;;;;;18.63;73.71;99642.03;2204560;40;20057;-79
2021/07/27 00:45:51;;;;;;;5.82;3.03;;;;;;;18.66;73.72;99649.75;2204230;40;20299;-79
2021/07/27 00:47:23;;;;;;;5.13;2.20;;;;;;;18.61;73.72;99646.84;2204631;40;20041;-81
2021/07/27 00:48:54;;;;;;;6.03;2.30;;;;;;;18.59;73.94;99648.94;2204186;40;20042;-82
2021/07/27 00:50:26;;;;;;;5.43;2.25;;;;;;;18.54;74.18;99650.38;2204238;40;20061;-81
2021/07/27 00:51:57;;;;;;;6.93;1.98;;;;;;;18.54;74.31;99650.38;2204443;40;20296;-82
2021/07/27 00:53:29;;;;;;;4.43;2.08;;;;;;;18.55;74.25;99643.91;2206980;40;20273;-85
2021/07/27 00:55:00;;;;;;;4.05;1.92;;;;;;;18.54;74.06;99634.13;2208968;40;20038;-84
2021/07/27 00:56:32;;;;;;;6.38;2.42;;;;;;;18.52;74.00;99636.19;2205307;40;20145;-80
2021/07/27 00:58:03;;;;;;;5.07;2.72;;;;;;;18.51;74.03;99639.13;2204763;40;20042;-82
2021/07/27 00:59:36;;;;;;;6.35;2.60;;;;;;;18.43;74.53;99642.84;2205056;40;20379;-82
2021/07/27 01:01:08;;;;;;;6.32;2.80;;;;;;;18.38;74.87;99645.34;2204831;40;20035;-81
2021/07/27 01:02:38;;;;;;;5.38;2.92;;;;;;;18.31;74.99;99644.53;2206078;40;20347;-82
2021/07/27 01:04:10;;;;;;;4.53;2.10;;;;;;;18.24;75.32;99655.31;2207933;40;20038;-84
2021/07/27 01:05:42;;;;;;;5.93;2.58;;;;;;;18.18;75.48;99638.03;2206837;40;20370;-83
2021/07/27 01:07:13;;;;;;;7.13;2.50;;;;;;;18.15;75.77;99651.97;2206519;40;20041;-83
2021/07/27 01:08:46;;;;;;;7.72;2.55;;;;;;;18.11;76.22;99645.31;2205305;40;20027;-80
2021/07/27 01:10:18;;;;;;;7.78;2.67;;;;;;;18.12;76.13;99649.69;2204953;40;20035;-81
2021/07/27 01:11:48;;;;;;;4.25;2.17;;;;;;;18.11;75.88;99644.47;2205011;40;20345;-82
2021/07/27 01:13:20;;;;;;;4.90;2.13;;;;;;;18.13;75.95;99642.38;2205417;40;20042;-81
2021/07/27 01:14:53;;;;;;;7.38;2.45;;;;;;;18.15;75.69;99645.72;2205859;40;20038;-81
2021/07/27 01:16:28;;;;;;;7.95;2.70;;;;;;;18.12;76.05;99641.56;2204926;40;20034;-80
2021/07/27 01:18:03;;;;;;;6.43;2.67;;;;;;;18.10;76.05;99635.53;2205530;40;20042;-82
2021/07/27 01:19:43;;;;;;;4.65;2.10;;;;;;;18.10;75.92;99632.81;2206153;40;20046;-81
2021/07/27 01:37:44;;;;;;;4.93;2.60;;;;;;;17.68;77.79;99650.94;2207389;40;20038;-82
2021/07/27 01:39:22;;;;;;;5.88;2.33;;;;;;;17.67;77.69;99644.69;2207508;40;20058;-85
2021/07/27 01:40:59;;;;;;;6.10;2.40;;;;;;;17.70;77.84;99646.16;2208016;40;20367;-86
2021/07/27 01:42:34;;;;;;;6.00;3.22;;;;;;;17.68;77.75;99651.78;2207345;40;20042;-82
2021/07/27 01:44:06;;;;;;;5.93;2.50;;;;;;;17.68;77.58;99648.22;2207859;40;20561;-84
2021/07/27 01:45:38;;;;;;;9.77;2.97;;;;;;;17.65;77.95;99657.56;2213964;40;20046;-77
2021/07/27 01:47:10;;;;;;;6.63;2.55;;;;;;;17.62;77.91;99652.56;2215918;40;20026;-77
2021/07/27 01:48:41;;;;;;;7.90;2.85;;;;;;;17.59;78.23;99651.09;2215035;40;20081;-78
2021/07/27 01:50:16;;;;;;;6.03;2.38;;;;;;;17.59;78.34;99648.41;2215472;40;20086;-78
2021/07/27 01:51:47;;;;;;;5.93;2.70;;;;;;;17.54;78.31;99645.47;2215398;40;20045;-79
2021/07/27 01:53:26;;;;;;;6.88;2.35;;;;;;;17.51;78.15;99645.88;2214858;40;20069;-81
2021/07/27 01:55:07;;;;;;;7.43;2.58;;;;;;;17.50;78.63;99648.78;2214619;40;20090;-81
2021/07/27 01:56:37;;;;;;;4.65;2.53;;;;;;;17.48;78.74;99648.13;2210268;40;20065;-82
2021/07/27 01:58:09;;;;;;;5.18;2.33;;;;;;;17.46;78.58;99653.75;2212048;40;20029;-79
2021/07/27 01:59:41;;;;;;;8.95;2.80;;;;;;;17.47;78.40;99650.03;2213959;40;20049;-79
2021/07/27 02:01:13;;;;;;;8.13;2.63;;;;;;;17.43;78.58;99654.97;2215203;40;20111;-82
2021/07/27 02:02:46;;;;;;;5.95;3.15;;;;;;;17.41;79.05;99658.91;2212836;40;20046;-81
2021/07/27 02:04:17;;;;;;;5.43;3.10;;;;;;;17.42;79.17;99657.88;2213064;40;20043;-83
2021/07/27 02:05:49;;;;;;;5.38;2.85;;;;;;;17.48;78.92;99658.94;2212874;40;20058;-82
2021/07/27 02:07:20;;;;;;;7.53;3.13;;;;;;;17.53;78.88;99660.03;2212911;40;20034;-82
2021/07/27 02:08:54;;;;;;;5.00;2.67;;;;;;;17.58;78.43;99657.53;2213447;40;20037;-82
2021/07/27 02:10:28;;;;;;;5.80;2.80;;;;;;;17.61;78.56;99661.72;2212687;40;20132;-82
2021/07/27 02:12:01;;;;;;;7.43;3.47;;;;;;;17.62;78.44;99666.94;2212744;40;20054;-81
2021/07/27 02:13:50;;;;;;;7.38;3.15;;;;;;;17.58;78.43;99662.13;2212394;40;20042;-82
2021/07/27 02:15:23;;;;;;;5.78;3.08;;;;;;;17.53;78.68;99673.53;2211710;40;20425;-82
2021/07/27 02:16:54;;;;;;;7.28;3.20;;;;;;;17.50;78.75;99665.00;2212166;40;20132;-81
2021/07/27 02:18:27;;;;;;;6.88;2.88;;;;;;;17.51;78.86;99667.47;2212656;40;20030;-82
2021/07/27 02:20:00;;;;;;;6.40;2.83;;;;;;;17.48;79.10;99667.06;2212669;40;20623;-81
2021/07/27 02:21:34;;;;;;;8.27;3.35;;;;;;;17.43;78.88;99671.16;2212661;40;20034;-83
2021/07/27 02:23:07;;;;;;;7.40;3.75;;;;;;;17.46;79.20;99664.56;2213149;40;20306;-82
2021/07/27 02:24:38;;;;;;;7.53;3.10;;;;;;;17.46;78.95;99664.56;2213639;40;20042;-85
2021/07/27 02:26:11;;;;;;;4.82;2.67;;;;;;;17.44;79.13;99677.44;2213329;40;20456;-85
2021/07/27 02:27:42;;;;;;;7.47;3.25;;;;;;;17.39;79.30;99667.22;2213577;40;20082;-84
2021/07/27 02:29:14;;;;;;;9.75;3.30;;;;;;;17.43;79.38;99673.06;2213992;40;20094;-84
2021/07/27 02:30:50;;;;;;;9.27;3.55;;;;;;;17.41;79.35;99672.41;2214417;40;20041;-83
2021/07/27 02:32:21;;;;;;;7.25;3.55;;;;;;;17.39;79.48;99672.63;2212707;40;20030;-83
2021/07/27 02:33:52;;;;;;;7.15;3.40;;;;;;;17.40;79.59;99676.16;2212054;40;20045;-82
2021/07/27 02:35:24;;;;;;;5.88;2.60;;;;;;;17.37;79.59;99674.69;2212883;40;20329;-83
2021/07/27 02:36:55;;;;;;;6.30;3.25;;;;;;;17.36;79.36;99680.28;2213719;40;20034;-84
2021/07/27 02:38:27;;;;;;;5.38;2.88;;;;;;;17.36;79.62;99666.78;2213650;40;20049;-83
2021/07/27 02:42:27;;;;;;;5.25;3.10;;;;;;;17.36;79.61;99672.19;2212462;40;20050;-81
2021/07/27 02:43:58;;;;;;;8.73;3.63;;;;;;;17.38;79.72;99667.44;2212424;40;20033;-81
2021/07/27 02:45:32;;;;;;;5.05;2.78;;;;;;;17.42;79.65;99669.53;2213392;40;20042;-82
2021/07/27 02:47:05;;;;;;;6.03;3.58;;;;;;;17.49;79.47;99671.44;2213373;40;20026;-82
2021/07/27 02:48:37;;;;;;;6.63;4.18;;;;;;;17.52;79.23;99674.56;2213444;40;20112;-82
2021/07/27 02:50:15;;;;;;;4.70;2.97;;;;;;;17.48;79.42;99673.28;2213638;40;20034;-85
2021/07/27 02:51:49;;;;;;;7.75;3.35;;;;;;;17.50;79.38;99679.31;2214287;40;20026;-81
2021/07/27 02:53:33;;;;;;;7.63;2.45;;;;;;;17.52;79.04;99669.16;2212830;40;20034;-82
2021/07/27 02:55:06;;;;;;;5.18;3.00;;;;;;;17.54;78.89;99672.50;2214367;40;20031;-82
2021/07/27 02:56:37;;;;;;;4.18;2.40;;;;;;;17.60;78.77;99677.09;2215691;40;20064;-82
2021/07/27 02:58:34;;;;;;;4.60;2.63;;;;;;;17.64;78.39;99676.72;2215298;40;20193;-83
2021/07/27 03:00:08;;;;;;;7.15;3.25;;;;;;;17.66;78.48;99680.06;2209880;40;20042;-85
2021/07/27 03:01:39;;;;;;;9.90;3.67;;;;;;;17.61;78.51;99672.53;2210537;40;20035;-81
2021/07/27 03:03:11;;;;;;;7.07;3.42;;;;;;;17.59;78.55;99675.44;2214314;40;20037;-80
2021/07/27 03:04:43;;;;;;;6.40;3.35;;;;;;;17.56;78.88;99680.41;2216509;40;20056;-81
2021/07/27 03:06:16;;;;;;;7.07;3.65;;;;;;;17.53;78.97;99676.22;2216674;40;20207;-84
2021/07/27 03:07:51;;;;;;;7.28;3.65;;;;;;;17.52;78.80;99679.97;2210398;40;20054;-84
2021/07/27 03:09:28;;;;;;;7.88;4.00;;;;;;;17.51;79.01;99677.47;2210358;40;20244;-83
2021/07/27 03:10:58;;;;;;;5.40;3.05;;;;;;;17.46;79.05;99668.09;2210555;40;20027;-82
2021/07/27 03:12:30;;;;;;;5.88;3.42;;;;;;;17.49;79.25;99679.53;2211077;40;20029;-83
2021/07/27 03:14:03;;;;;;;7.15;3.42;;;;;;;17.47;79.08;99682.44;2216358;40;20038;-83
2021/07/27 03:15:35;;;;;;;6.00;4.25;;;;;;;17.46;79.14;99681.59;2216402;40;20065;-83
2021/07/27 03:17:07;;;;;;;8.15;3.80;;;;;;;17.42;79.08;99674.94;2216491;40;20033;-83
2021/07/27 03:18:37;;;;;;;6.07;3.53;;;;;;;17.42;79.13;99679.50;2216201;40;20041;-81
2021/07/27 03:20:11;;;;;;;8.20;3.78;;;;;;;17.43;79.11;99681.97;2216313;40;20042;-84
2021/07/27 03:21:43;;;;;;;8.02;4.57;;;;;;;17.44;79.52;99685.53;2216523;40;20030;-84
2021/07/27 03:23:15;;;;;;;11.00;4.32;;;;;;;17.41;79.52;99684.06;2216365;40;20030;-83
2021/07/27 03:24:46;;;;;;;7.97;4.38;;;;;;;17.42;79.19;99684.91;2210352;40;20026;-83
2021/07/27 03:26:18;;;;;;;7.43;4.18;;;;;;;17.39;79.51;99680.72;2213685;40;20033;-84
2021/07/27 03:27:51;;;;;;;13.02;4.13;;;;;;;17.39;79.47;99690.69;2216545;40;20026;-83
2021/07/27 03:29:24;;;;;;;5.93;3.80;;;;;;;17.39;79.84;99686.13;2216538;40;20046;-82
2021/07/27 03:30:55;;;;;;;5.65;3.83;;;;;;;17.39;79.91;99693.38;2216565;40;20041;-83
2021/07/27 03:32:27;;;;;;;8.32;3.70;;;;;;;17.37;79.83;99692.78;2216324;40;20038;-83
2021/07/27 03:34:00;;;;;;;7.35;3.22;;;;;;;17.32;79.91;99690.66;2216277;40;20038;-81
2021/07/27 03:35:36;;;;;;;6.20;4.13;;;;;;;17.31;80.11;99695.22;2216096;40;20138;-83
2021/07/27 03:37:09;;;;;;;6.97;4.97;;;;;;;17.31;80.07;99694.41;2210215;40;20062;-83
2021/07/27 03:38:40;;;;;;;8.48;4.43;;;;;;;17.31;79.95;99700.63;2210272;40;20045;-83
2021/07/27 03:40:13;;;;;;;7.68;5.03;;;;;;;17.29;79.89;99697.28;2210218;40;20061;-82
2021/07/27 03:41:45;;;;;;;7.45;4.38;;;;;;;17.28;80.06;99690.22;2210248;40;20042;-83
2021/07/27 03:43:16;;;;;;;5.78;4.30;;;;;;;17.30;80.29;99693.53;2211236;40;20031;-82
2021/07/27 03:44:53;;;;;;;8.07;4.30;;;;;;;17.34;79.96;99695.84;2216329;40;20041;-84
2021/07/27 03:46:25;;;;;;;7.78;4.70;;;;;;;17.34;79.93;99696.69;2216301;40;20038;-83
2021/07/27 03:47:55;;;;;;;8.40;5.10;;;;;;;17.30;79.82;99690.84;2216339;40;20033;-83
2021/07/27 03:49:29;;;;;;;11.00;3.70;;;;;;;17.30;79.74;99688.13;2216392;40;20026;-83
2021/07/27 03:51:00;;;;;;;9.23;5.28;;;;;;;17.30;79.95;99688.13;2210305;40;20081;-83
2021/07/27 03:52:32;;;;;;;7.95;3.88;;;;;;;17.31;80.20;99689.00;2210326;40;20038;-84
2021/07/27 03:54:03;;;;;;;7.72;4.50;;;;;;;17.30;79.95;99693.53;2210299;40;20045;-82
2021/07/27 03:55:34;;;;;;;10.93;4.07;;;;;;;17.30;80.15;99690.03;2210118;40;20037;-84
2021/07/27 03:57:06;;;;;;;10.27;4.70;;;;;;;17.30;80.21;99692.72;2210085;40;20055;-85
2021/07/27 03:58:37;;;;;;;8.93;3.95;;;;;;;17.31;80.16;99689.81;2210012;40;20041;-83
2021/07/27 04:00:11;;;;;;;6.53;3.60;;;;;;;17.34;80.33;99685.88;2210175;40;20019;-86
2021/07/27 04:01:41;;;;;;;8.70;3.72;;;;;;;17.37;80.20;99682.78;2209978;40;20034;-84
2021/07/27 04:03:14;;;;;;;9.00;3.95;;;;;;;17.42;79.79;99691.16;2210299;40;20026;-85
2021/07/27 04:04:46;;;;;;;7.57;3.67;;;;;;;17.47;79.88;99685.16;2215762;40;20038;-84
2021/07/27 04:06:17;;;;;;;8.75;3.38;;;;;;;17.44;79.50;99677.44;2216329;40;20038;-84
2021/07/27 04:07:49;;;;;;;6.57;3.25;;;;;;;17.45;79.82;99689.91;2216268;40;20041;-84
2021/07/27 04:09:21;;;;;;;9.77;3.65;;;;;;;17.40;79.65;99686.94;2216220;40;20037;-82
2021/07/27 04:10:53;;;;;;;8.52;3.75;;;;;;;17.37;79.70;99681.97;2216332;40;20034;-83
2021/07/27 04:12:24;;;;;;;8.27;3.42;;;;;;;17.34;80.04;99687.75;2216355;40;20041;-85
2021/07/27 04:13:56;;;;;;;7.15;3.80;;;;;;;17.33;80.10;99692.34;2216316;40;20045;-86
2021/07/27 04:15:42;;;;;;;9.20;3.58;;;;;;;17.31;80.15;99680.88;2216250;40;20046;-84
2021/07/27 04:17:15;;;;;;;8.55;4.18;;;;;;;17.29;80.32;99682.94;2216302;40;20073;-84
2021/07/27 04:18:47;;;;;;;6.55;3.80;;;;;;;17.27;80.44;99685.84;2209991;40;20045;-84
2021/07/27 04:20:18;;;;;;;7.93;3.33;;;;;;;17.27;80.27;99683.16;2210204;40;20083;-84
2021/07/27 04:21:50;;;;;;;11.35;3.90;;;;;;;17.27;80.55;99685.84;2210067;40;20037;-83
2021/07/27 04:23:22;;;;;;;10.27;3.45;;;;;;;17.24;80.46;99682.72;2210275;40;20058;-83
2021/07/27 04:24:53;;;;;;;8.48;4.25;;;;;;;17.24;80.61;99680.84;2215970;40;20030;-84
2021/07/27 04:26:25;;;;;;;9.05;4.28;;;;;;;17.29;80.38;99682.94;2215508;40;20034;-81
2021/07/27 04:27:56;;;;;;;7.05;4.45;;;;;;;17.31;80.38;99684.41;2215175;40;20034;-83
2021/07/27 04:29:27;;;;;;;7.40;5.47;;;;;;;17.31;80.48;99679.00;2215586;40;20033;-84
2021/07/27 04:31:00;;;;;;;9.05;5.70;;;;;;;17.35;80.26;99684.03;2214951;40;20041;-82
2021/07/27 04:32:32;;;;;;;12.63;5.43;;;;;;;17.36;80.07;99680.28;2216027;40;20030;-85
2021/07/27 04:34:03;;;;;;;9.43;5.40;;;;;;;17.35;80.11;99676.75;2215572;40;20033;-82
2021/07/27 04:35:34;;;;;;;7.53;4.65;;;;;;;17.35;80.47;99671.34;2215509;40;20038;-83
2021/07/27 04:37:07;;;;;;;8.65;5.28;;;;;;;17.36;80.20;99669.50;2215608;40;20038;-83
2021/07/27 04:38:38;;;;;;;7.90;5.25;;;;;;;17.36;80.33;99673.00;2215753;40;20034;-83
2021/07/27 04:40:10;;;;;;;9.05;5.13;;;;;;;17.36;80.38;99669.50;2216014;40;20028;-84
2021/07/27 04:41:42;;;;;;;7.60;4.60;;;;;;;17.36;80.35;99680.28;2215840;40;20033;-83
2021/07/27 04:43:13;;;;;;;8.80;6.13;;;;;;;17.37;80.30;99673.88;2215732;40;20049;-83
2021/07/27 04:44:45;;;;;;;7.95;5.93;;;;;;;17.38;80.23;99672.84;2209873;40;20043;-83
2021/07/27 04:46:18;;;;;;;7.85;4.55;;;;;;;17.40;80.12;99665.34;2210067;40;20026;-85
2021/07/27 04:47:49;;;;;;;8.68;6.13;;;;;;;17.48;80.16;99667.88;2210049;40;20062;-83
2021/07/27 04:49:21;;;;;;;8.15;5.55;;;;;;;17.55;80.13;99670.63;2209828;40;20042;-81
2021/07/27 04:50:53;;;;;;;9.93;5.75;;;;;;;17.61;79.78;99672.53;2210028;40;20027;-85
2021/07/27 04:52:24;;;;;;;8.65;6.90;;;;;;;17.66;79.56;99664.66;2210044;40;20507;-82
2021/07/27 04:53:58;;;;;;;13.23;7.97;;;;;;;17.68;79.40;99667.16;2209981;40;20030;-80
2021/07/27 04:55:31;;;;;;;10.27;6.32;;;;;;;17.69;79.11;99674.22;2215360;40;20087;-84
2021/07/27 04:57:02;;;;;;;11.52;6.30;;;;;;;17.71;79.39;99666.75;2215862;40;20076;-81
2021/07/27 04:58:34;;;;;;;9.57;6.65;;;;;;;17.73;79.00;99664.69;2215998;40;20027;-79
2021/07/27 05:00:09;;;;;;;9.80;6.43;;;;;;;17.77;79.05;99668.66;2216017;40;20030;-80
2021/07/27 05:01:41;;;;;;;8.63;4.63;;;;;;;17.77;79.17;99668.66;2215960;40;20033;-80
2021/07/27 05:03:13;;;;;;;9.70;4.35;;;;;;;17.81;78.68;99667.22;2216043;40;20061;-83
2021/07/27 05:04:45;;;;;;;9.40;5.40;;;;;;;17.86;78.84;99662.03;2215941;40;20034;-84
2021/07/27 05:06:22;;;;;;;7.18;4.80;;;;;;;17.89;78.69;99658.94;2216074;40;20030;-84
2021/07/27 05:07:53;;;;;;;7.57;4.30;;;;;;;17.91;78.15;99661.41;2212098;40;20026;-86
2021/07/27 05:09:26;;;;;;;8.07;4.82;;;;;;;17.95;78.50;99656.47;2215686;40;20044;-83
2021/07/27 05:11:02;;;;;;;7.72;4.05;;;;;;;18.01;78.18;99661.91;2216101;40;20034;-87
2021/07/27 05:12:37;;;;;;;7.88;4.25;;;;;;;18.03;77.86;99659.03;2208700;40;20045;-86
2021/07/27 05:14:09;;;;;;;8.88;4.20;;;;;;;18.05;77.67;99648.81;2209923;40;20034;-87
2021/07/27 05:15:41;;;;;;;6.72;3.97;;;;;;;18.12;77.82;99659.66;2208896;40;20378;-85
2021/07/27 05:17:15;;;;;;;6.88;4.05;;;;;;;18.16;77.33;99661.75;2209215;40;20038;-86
2021/07/27 05:18:45;;;;;;;9.43;4.20;;;;;;;18.21;77.35;99663.84;2209679;40;20089;-86
2021/07/27 05:20:17;;;;;;;8.32;4.35;;;;;;;18.24;77.20;99653.44;2209065;40;20031;-85
2021/07/27 05:21:50;;;;;;;8.07;4.35;;;;;;;18.28;76.76;99659.28;2209113;40;20038;-85
2021/07/27 05:23:22;;;;;;;8.18;4.00;;;;;;;18.30;76.78;99659.09;2207882;40;20068;-83
2021/07/27 05:24:54;;;;;;;8.35;3.85;;;;;;;18.36;76.34;99652.84;2207237;40;20454;-84
2021/07/27 05:26:25;;;;;;;7.13;3.90;;;;;;;18.42;76.15;99651.19;2209559;40;20038;-85
2021/07/27 05:27:57;;;;;;;7.68;4.18;;;;;;;18.45;76.13;99657.03;2207218;40;20046;-84
2021/07/27 05:29:28;;;;;;;8.68;3.33;;;;;;;18.48;75.69;99655.78;2205383;40;20040;-82
2021/07/27 05:31:00;;;;;;;6.43;3.45;;;;;;;18.53;75.43;99646.00;2205807;40;20042;-82
2021/07/27 05:32:39;;;;;;;7.05;4.07;;;;;;;18.54;75.33;99650.38;2206025;40;20035;-86
2021/07/27 05:34:14;;;;;;;6.47;3.20;;;;;;;18.57;75.28;99657.22;2205309;40;20039;-82
2021/07/27 05:35:46;;;;;;;6.53;3.50;;;;;;;18.62;75.28;99643.94;2204915;40;20335;-83
2021/07/27 05:37:18;;;;;;;6.93;4.00;;;;;;;18.71;74.71;99649.97;2203584;40;20035;-82
2021/07/27 05:38:51;;;;;;;5.07;3.25;;;;;;;18.81;74.39;99654.97;2204011;40;20510;-82
2021/07/27 05:40:23;;;;;;;6.57;3.70;;;;;;;18.83;74.18;99647.47;2204474;40;20041;-84
2021/07/27 05:41:54;;;;;;;6.18;3.17;;;;;;;18.84;74.19;99658.09;2204718;40;20046;-83
2021/07/27 05:43:26;;;;;;;6.95;3.90;;;;;;;18.91;73.95;99657.25;2203338;40;20051;-84
2021/07/27 05:44:57;;;;;;;6.97;3.60;;;;;;;18.95;73.92;99656.66;2205218;40;20052;-84
2021/07/27 05:46:28;;;;;;;6.40;3.85;;;;;;;18.99;73.54;99657.06;2204420;40;20045;-82
2021/07/27 05:48:02;;;;;;;7.85;3.55;;;;;;;19.00;73.39;99651.44;2206102;40;20038;-83
2021/07/27 05:49:35;;;;;;;9.80;3.85;;;;;;;19.04;73.70;99649.16;2205848;40;20046;-83
2021/07/27 05:51:10;;;;;;;6.13;3.88;;;;;;;19.08;73.39;99660.41;2206820;40;20053;-81
2021/07/27 05:52:43;;;;;;;6.32;3.83;;;;;;;19.13;73.11;99656.03;2207395;40;20034;-81
2021/07/27 05:54:15;;;;;;;5.53;3.70;;;;;;;19.11;72.69;99641.03;2206854;40;20046;-82
2021/07/27 05:55:48;;;;;;;6.40;3.50;;;;;;;19.17;72.59;99645.59;2207539;40;20030;-84
2021/07/27 05:57:21;;;;;;;9.35;3.60;;;;;;;19.27;72.25;99642.47;2205934;40;20047;-83
2021/07/27 05:58:54;;;;;;;5.50;3.15;;;;;;;19.31;72.15;99644.53;2207198;40;20046;-81
2021/07/27 06:00:27;;;;;;;6.47;2.80;;;;;;;19.34;72.22;99648.69;2211743;40;20042;-83
2021/07/27 06:02:00;;;;;;;9.35;3.83;;;;;;;19.36;71.83;99652.03;2212990;40;20054;-84
2021/07/27 06:03:35;;;;;;;7.28;4.20;;;;;;;19.37;71.98;99653.66;2214992;40;20041;-86
2021/07/27 06:05:10;;;;;;;9.65;4.03;;;;;;;19.40;71.95;99649.72;2215288;40;20034;-87
2021/07/27 06:06:43;;;;;;;5.95;3.53;;;;;;;19.45;71.75;99645.34;2211548;40;20041;-82
2021/07/27 06:10:11;;;;;;;10.10;3.83;;;;;;;19.45;71.63;99645.34;2199221;40;20042;-85
2021/07/27 06:11:43;;;;;;;6.75;3.70;;;;;;;19.48;71.36;99647.59;2206358;40;20037;-83
2021/07/27 06:13:14;;;;;;;7.68;3.60;;;;;;;19.53;71.19;99644.25;2203309;40;20038;-82
2021/07/27 06:14:46;;;;;;;6.53;3.03;;;;;;;19.57;71.06;99644.66;2205252;40;20051;-82
2021/07/27 06:16:17;;;;;;;8.23;3.42;;;;;;;19.60;70.99;99653.19;2210409;40;20041;-79
2021/07/27 06:17:49;;;;;;;6.60;3.40;;;;;;;19.69;70.88;99645.66;2215083;40;20030;-81
2021/07/27 06:19:23;;;;;;;6.40;3.55;;;;;;;19.77;70.50;99633.75;2214575;40;20037;-82
2021/07/27 06:20:55;;;;;;;8.02;3.90;;;;;;;19.81;70.59;99643.09;2215377;40;20054;-85
2021/07/27 06:22:27;;;;;;;7.82;3.70;;;;;;;19.78;70.61;99647.06;2215624;40;20038;-87
2021/07/27 06:23:59;;;;;;;7.57;3.47;;;;;;;19.86;70.23;99651.47;2215437;40;20038;-85
2021/07/27 06:25:30;;;;;;;6.30;3.67;;;;;;;19.94;70.06;99636.81;2215491;40;20030;-80
2021/07/27 06:27:04;;;;;;;8.07;3.13;;;;;;;20.03;69.92;99646.34;2215211;40;20018;-82
2021/07/27 06:28:36;;;;;;;7.25;3.58;;;;;;;20.14;69.62;99646.72;2215091;40;20029;-79
2021/07/27 06:30:10;;;;;;;9.10;3.97;;;;;;;20.27;69.23;99649.38;2213792;40;20066;-81
2021/07/27 06:31:42;;;;;;;8.88;4.50;;;;;;;20.36;69.12;99648.06;2209038;40;20626;-80
2021/07/27 06:33:13;;;;;;;8.00;4.15;;;;;;;20.35;69.18;99654.53;2210005;40;20035;-82
2021/07/27 06:34:46;;;;;;;7.30;3.47;;;;;;;20.39;68.96;99653.06;2212845;40;20378;-83
2021/07/27 06:36:17;;;;;;;8.05;3.67;;;;;;;20.48;68.86;99652.78;2211401;40;20042;-82
2021/07/27 06:37:51;;;;;;;8.82;3.72;;;;;;;20.49;68.63;99654.44;2211358;40;20070;-85
2021/07/27 06:39:23;;;;;;;9.98;4.43;;;;;;;20.47;68.69;99651.13;2208567;40;20338;-81
2021/07/27 06:40:55;;;;;;;9.35;3.72;;;;;;;20.42;68.75;99643.63;2213646;40;20054;-88
2021/07/27 06:42:26;;;;;;;6.72;3.47;;;;;;;20.38;68.80;99654.09;2205239;40;20039;-82
2021/07/27 06:43:58;;;;;;;6.18;4.05;;;;;;;20.40;68.97;99651.16;2204936;40;20038;-81
2021/07/27 06:45:29;;;;;;;7.40;4.07;;;;;;;20.44;68.84;99656.97;2211128;40;20041;-79
2021/07/27 06:47:01;;;;;;;6.43;3.90;;;;;;;20.47;68.92;99661.97;2203795;40;20049;-80
2021/07/27 06:48:32;;;;;;;7.30;3.95;;;;;;;20.49;68.81;99647.13;2206547;40;20046;-86
2021/07/27 06:50:06;;;;;;;6.35;3.92;;;;;;;20.54;69.08;99650.03;2208075;40;20081;-84
2021/07/27 06:51:39;;;;;;;7.25;3.45;;;;;;;20.62;68.81;99651.63;2210396;40;20038;-86
2021/07/27 06:53:10;;;;;;;8.88;3.75;;;;;;;20.68;68.58;99653.47;2215038;40;20041;-86
2021/07/27 06:54:42;;;;;;;7.15;4.43;;;;;;;20.70;68.53;99667.63;2215905;40;20033;-85
2021/07/27 06:56:14;;;;;;;8.32;3.60;;;;;;;20.71;68.37;99660.34;2214677;40;20057;-82
2021/07/27 06:57:45;;;;;;;7.95;4.28;;;;;;;20.73;68.13;99667.25;2217278;40;20030;-82
2021/07/27 06:59:17;;;;;;;6.55;3.72;;;;;;;20.71;68.16;99676.63;2218862;40;20026;-86
2021/07/27 07:00:48;;;;;;;8.45;3.97;;;;;;;20.73;68.33;99672.66;2215310;40;20032;-86
2021/07/27 07:02:20;;;;;;;8.30;4.18;;;;;;;20.85;67.91;99669.25;2215959;40;20030;-82
2021/07/27 07:03:52;;;;;;;7.07;4.07;;;;;;;20.96;67.65;99670.41;2216120;40;20018;-87
2021/07/27 07:05:24;;;;;;;6.40;3.80;;;;;;;21.14;67.18;99665.00;2216121;40;20038;-85
2021/07/27 07:06:56;;;;;;;6.05;3.70;;;;;;;21.31;66.66;99667.97;2209131;40;20034;-87
2021/07/27 07:08:27;;;;;;;4.75;3.30;;;;;;;21.41;66.10;99674.78;2208419;40;20093;-86
2021/07/27 07:09:59;;;;;;;9.10;3.70;;;;;;;21.46;65.79;99670.34;2209077;40;20592;-84
2021/07/27 07:11:40;;;;;;;7.43;4.03;;;;;;;21.51;65.21;99665.03;2208635;40;20050;-87
2021/07/27 07:13:12;;;;;;;6.68;4.07;;;;;;;21.52;65.60;99674.03;2208314;40;20029;-87
2021/07/27 07:14:44;;;;;;;7.95;3.92;;;;;;;21.50;65.52;99676.97;2208339;40;20047;-84
2021/07/27 07:16:16;;;;;;;6.65;3.50;;;;;;;21.49;65.50;99679.91;2208977;40;20030;-84
2021/07/27 07:17:47;;;;;;;5.60;3.53;;;;;;;21.47;65.48;99676.59;2208574;40;20029;-84
2021/07/27 07:19:25;;;;;;;8.20;3.63;;;;;;;21.47;65.37;99682.03;2209758;40;20018;-87
2021/07/27 07:21:02;;;;;;;8.38;4.18;;;;;;;21.44;65.74;99688.75;2209506;40;20034;-85
2021/07/27 07:22:35;;;;;;;11.70;4.25;;;;;;;21.42;65.64;99684.59;2209756;40;20045;-83
2021/07/27 07:24:07;;;;;;;6.38;3.63;;;;;;;21.43;65.65;99686.28;2214258;40;20026;-88
2021/07/27 07:25:42;;;;;;;5.82;3.88;;;;;;;21.43;65.49;99681.66;2216451;40;20030;-85
2021/07/27 07:27:19;;;;;;;6.40;3.95;;;;;;;21.51;64.96;99688.69;2216317;40;20082;-87
2021/07/27 07:28:50;;;;;;;9.75;4.55;;;;;;;21.72;64.54;99694.78;2216343;40;20047;-86
2021/07/27 07:30:25;;;;;;;7.05;3.63;;;;;;;21.83;64.22;99690.44;2216765;40;20037;-91
2021/07/27 07:32:00;;;;;;;6.35;3.55;;;;;;;22.01;63.69;99686.91;2216804;40;20094;-89
2021/07/27 07:33:32;;;;;;;5.90;3.80;;;;;;;22.27;63.29;99680.25;2215489;40;20038;-89
2021/07/27 07:35:05;;;;;;;9.93;3.20;;;;;;;22.47;62.63;99677.28;2209538;40;20042;-84
2021/07/27 07:36:41;;;;;;;10.73;4.45;;;;;;;22.57;62.38;99683.00;2210780;40;20030;-84
2021/07/27 07:38:15;;;;;;;6.40;3.85;;;;;;;22.57;62.09;99676.69;2212261;40;20038;-86
2021/07/27 07:39:50;;;;;;;5.63;3.42;;;;;;;22.54;61.83;99675.28;2214798;40;20029;-85
2021/07/27 07:41:24;;;;;;;7.80;3.78;;;;;;;22.52;62.00;99682.03;2215415;40;20092;-86
2021/07/27 07:42:57;;;;;;;5.45;3.20;;;;;;;22.58;61.91;99676.47;2209316;40;20085;-84
2021/07/27 07:44:30;;;;;;;5.57;3.45;;;;;;;22.66;62.08;99677.22;2214718;40;20026;-85
2021/07/27 07:46:01;;;;;;;5.43;3.38;;;;;;;22.78;62.09;99671.78;2215805;40;20037;-87
2021/07/27 07:47:34;;;;;;;6.32;3.42;;;;;;;22.94;61.54;99667.53;2215747;40;20057;-86
2021/07/27 07:49:08;;;;;;;5.82;3.80;;;;;;;23.14;61.12;99672.63;2215927;40;20034;-87
2021/07/27 07:50:43;;;;;;;6.50;3.17;;;;;;;23.21;60.80;99673.38;2216153;40;20627;-85
2021/07/27 07:52:17;;;;;;;5.80;3.25;;;;;;;23.36;60.39;99672.88;2216670;40;20034;-83
2021/07/27 07:53:49;;;;;;;7.15;3.67;;;;;;;23.47;59.36;99668.50;2216261;40;20033;-85
2021/07/27 07:55:36;;;;;;;5.32;3.20;;;;;;;23.51;58.77;99661.47;2214446;40;20046;-84
2021/07/27 07:57:18;;;;;;;8.85;4.07;;;;;;;23.57;58.55;99654.25;2214028;40;20058;-85
2021/07/27 07:58:50;;;;;;;6.68;3.97;;;;;;;23.65;57.97;99662.03;2209252;40;20369;-85
2021/07/27 08:00:44;;;;;;;6.13;3.75;;;;;;;23.73;56.60;99660.84;2207126;40;20034;-84
2021/07/27 08:02:16;;;;;;;8.57;3.75;;;;;;;23.67;57.01;99663.47;2208923;40;20037;-85
2021/07/27 08:03:55;;;;;;;7.65;3.60;;;;;;;23.74;56.76;99657.88;2209026;40;20047;-85
2021/07/27 08:08:49;;;;;;;7.15;3.80;;;;;;;24.21;55.96;99659.66;2200319;40;20269;-84
2021/07/27 08:40:24;;;;;;;8.38;4.13;;;;;;;24.45;53.77;99675.91;2207898;40;20101;-85